Time;durP1;ratioP1;P1;durP2;ratioP2;P2;SDS_P1;SDS_P2;PMS_P1;PMS_P2;Temp;Humidity;BMP_temperature;BMP_pressure;BME280_temperature;BME280_humidity;BME280_pressure;Samples;Min_cycle;Max_cycle;Signal;HPM_P1;HPM_P2
2021/12/07 00:00:32;;;;;;;;;4.00;4.00;;;;;;;;5126880;27;45590;-84
2021/12/07 00:02:57;;;;;;;;;2.50;2.50;;;;;;;;5094748;27;45347;-83
2021/12/07 00:05:22;;;;;;;;;2.33;2.00;;;;;;;;5124092;27;45277;-83
2021/12/07 00:07:48;;;;;;;;;1.50;1.25;;;;;;;;5125806;27;45342;-84
2021/12/07 00:10:14;;;;;;;;;2.25;2.00;;;;;;;;5124097;27;45408;-83
2021/12/07 00:12:42;;;;;;;;;3.00;2.25;;;;;;;;5115756;27;45528;-84
2021/12/07 00:15:08;;;;;;;;;2.50;2.00;;;;;;;;5122281;27;45412;-84
2021/12/07 00:17:34;;;;;;;;;2.00;1.75;;;;;;;;5128882;27;46154;-84
2021/12/07 00:20:00;;;;;;;;;2.50;1.00;;;;;;;;5132565;27;45873;-84
2021/12/07 00:22:25;;;;;;;;;1.75;1.75;;;;;;;;5115497;27;45482;-84
2021/12/07 00:24:51;;;;;;;;;2.33;2.33;;;;;;;;5129438;27;45360;-84
2021/12/07 00:27:16;;;;;;;;;2.33;2.00;;;;;;;;5100348;27;47311;-83
2021/12/07 00:29:41;;;;;;;;;1.50;1.25;;;;;;;;5099155;27;45780;-83
2021/12/07 00:32:24;;;;;;;;;1.00;1.00;;;;;;;;5112607;27;45456;-85
2021/12/07 00:37:35;;;;;;;;;2.25;1.50;;;;;;;;5126580;27;46078;-84
2021/12/07 00:40:00;;;;;;;;;1.00;0.00;;;;;;;;5114906;27;45377;-84
2021/12/07 00:42:26;;;;;;;;;1.75;1.00;;;;;;;;5094468;27;45818;-84
2021/12/07 00:44:51;;;;;;;;;1.25;1.00;;;;;;;;5114845;27;45354;-84
2021/12/07 00:47:17;;;;;;;;;1.75;0.75;;;;;;;;5113779;27;46107;-84
2021/12/07 00:49:42;;;;;;;;;2.00;1.00;;;;;;;;5109024;27;45681;-84
2021/12/07 00:52:08;;;;;;;;;1.00;1.00;;;;;;;;5115067;27;45697;-83
2021/12/07 00:54:34;;;;;;;;;0.75;0.75;;;;;;;;5131989;27;45215;-83
2021/12/07 00:57:01;;;;;;;;;0.25;0.25;;;;;;;;5110791;27;45881;-83
2021/12/07 00:59:27;;;;;;;;;1.00;1.00;;;;;;;;5104854;27;45987;-83
2021/12/07 01:01:55;;;;;;;;;0.00;0.00;;;;;;;;5119487;27;45446;-82
2021/12/07 01:04:24;;;;;;;;;0.00;0.00;;;;;;;;5125328;27;45528;-83
2021/12/07 01:07:03;;;;;;;;;0.75;0.75;;;;;;;;5117112;27;45429;-84
2021/12/07 01:25:44;;;;;;;;;1.50;1.00;;;;;;;;5122063;27;46102;-83
2021/12/07 01:28:25;;;;;;;;;0.00;0.00;;;;;;;;5123092;27;45695;-83
2021/12/07 01:31:12;;;;;;;;;1.00;0.25;;;;;;;;5125509;27;45960;-83
2021/12/07 01:42:45;;;;;;;;;2.50;1.00;;;;;;;;5135068;27;45459;-83
2021/12/07 01:47:45;;;;;;;;;1.00;1.00;;;;;;;;5134012;27;45579;-83
2021/12/07 01:58:05;;;;;;;;;0.00;0.00;;;;;;;;5137510;27;45581;-82
2021/12/07 02:00:33;;;;;;;;;1.25;1.00;;;;;;;;5125323;27;45476;-84
2021/12/07 02:02:58;;;;;;;;;2.00;1.00;;;;;;;;5113116;27;45570;-83
2021/12/07 02:05:24;;;;;;;;;2.00;1.00;;;;;;;;5116407;27;45489;-83
2021/12/07 02:07:49;;;;;;;;;2.25;1.50;;;;;;;;5103366;27;45470;-82
2021/12/07 02:10:19;;;;;;;;;2.00;1.75;;;;;;;;5114434;27;45669;-83
2021/12/07 02:12:46;;;;;;;;;1.50;1.00;;;;;;;;5106862;27;45865;-82
2021/12/07 02:15:13;;;;;;;;;2.75;2.00;;;;;;;;5095465;27;45637;-82
2021/12/07 02:17:39;;;;;;;;;3.50;1.50;;;;;;;;5109762;27;46081;-83
2021/12/07 02:20:05;;;;;;;;;2.75;1.00;;;;;;;;5132825;27;45511;-83
2021/12/07 02:22:31;;;;;;;;;1.00;1.00;;;;;;;;5134007;27;45397;-83
2021/12/07 02:24:56;;;;;;;;;2.33;2.00;;;;;;;;5127476;27;45389;-83
2021/12/07 02:27:21;;;;;;;;;2.00;2.00;;;;;;;;5118651;27;45392;-83
2021/12/07 02:29:46;;;;;;;;;1.00;1.00;;;;;;;;5132319;27;46231;-82
2021/12/07 02:32:12;;;;;;;;;1.67;1.00;;;;;;;;5137794;27;45511;-83
2021/12/07 02:34:42;;;;;;;;;1.00;1.00;;;;;;;;5113091;27;45291;-83
2021/12/07 02:37:08;;;;;;;;;1.50;1.00;;;;;;;;5126829;27;45437;-83
2021/12/07 02:39:35;;;;;;;;;1.00;1.00;;;;;;;;5103641;27;48353;-82
2021/12/07 02:42:01;;;;;;;;;5.00;1.00;;;;;;;;5112831;27;45595;-83
2021/12/07 02:44:27;;;;;;;;;0.75;0.75;;;;;;;;5099346;27;45460;-83
2021/12/07 02:46:52;;;;;;;;;1.75;1.00;;;;;;;;5133277;27;45588;-83
2021/12/07 02:49:19;;;;;;;;;1.00;1.00;;;;;;;;5096321;27;47961;-82
2021/12/07 02:51:44;;;;;;;;;1.75;1.00;;;;;;;;5117063;27;45446;-83
2021/12/07 02:54:09;;;;;;;;;3.67;0.67;;;;;;;;5093323;27;45366;-81
2021/12/07 02:56:35;;;;;;;;;2.00;1.00;;;;;;;;5094961;27;46178;-83
2021/12/07 02:59:03;;;;;;;;;1.67;1.67;;;;;;;;5096287;27;47931;-83
2021/12/07 03:01:32;;;;;;;;;2.50;1.00;;;;;;;;5139069;27;45550;-83
2021/12/07 03:04:11;;;;;;;;;1.00;1.00;;;;;;;;5128817;27;45447;-83
2021/12/07 03:28:20;;;;;;;;;1.33;1.33;;;;;;;;5119092;27;45250;-83
2021/12/07 03:30:45;;;;;;;;;2.00;2.00;;;;;;;;5144416;27;45121;-82
2021/12/07 03:33:11;;;;;;;;;3.00;1.67;;;;;;;;5147760;27;45341;-83
2021/12/07 03:35:36;;;;;;;;;0.75;0.50;;;;;;;;5138080;27;45177;-83
2021/12/07 03:38:01;;;;;;;;;1.00;1.00;;;;;;;;5119958;27;45527;-83
2021/12/07 03:40:27;;;;;;;;;3.50;2.00;;;;;;;;5093330;27;47321;-83
2021/12/07 03:42:52;;;;;;;;;2.00;1.00;;;;;;;;5112184;27;45681;-82
2021/12/07 03:45:18;;;;;;;;;1.00;1.00;;;;;;;;5110891;27;45401;-83
2021/12/07 03:47:43;;;;;;;;;3.00;3.00;;;;;;;;5095908;27;45291;-83
2021/12/07 03:50:09;;;;;;;;;1.33;1.33;;;;;;;;5121996;27;46491;-84
2021/12/07 03:52:34;;;;;;;;;2.00;1.00;;;;;;;;5112944;27;45877;-84
2021/12/07 03:54:59;;;;;;;;;2.00;1.00;;;;;;;;5101046;27;45488;-84
2021/12/07 03:57:25;;;;;;;;;1.50;1.00;;;;;;;;5094988;27;45737;-83
2021/12/07 03:59:50;;;;;;;;;3.00;2.00;;;;;;;;5110416;27;48135;-84
2021/12/07 04:02:15;;;;;;;;;3.00;2.25;;;;;;;;5133328;27;45476;-83
2021/12/07 04:04:40;;;;;;;;;2.00;2.00;;;;;;;;5129846;27;45464;-84
2021/12/07 04:07:06;;;;;;;;;1.00;1.00;;;;;;;;5116254;27;45696;-84
2021/12/07 04:09:32;;;;;;;;;1.00;1.00;;;;;;;;5119197;27;46268;-83
2021/12/07 04:11:57;;;;;;;;;1.25;1.25;;;;;;;;5111809;27;45720;-83
2021/12/07 04:14:22;;;;;;;;;5.00;3.67;;;;;;;;5132017;27;45491;-85
2021/12/07 04:16:48;;;;;;;;;2.00;2.00;;;;;;;;5098459;27;45552;-84
2021/12/07 04:19:13;;;;;;;;;2.00;1.67;;;;;;;;5097934;27;47278;-84
2021/12/07 04:21:38;;;;;;;;;2.67;1.67;;;;;;;;5100597;27;45802;-82
2021/12/07 04:24:03;;;;;;;;;2.00;1.67;;;;;;;;5114078;27;45452;-83
2021/12/07 04:26:31;;;;;;;;;2.00;2.00;;;;;;;;5095679;27;45434;-83
2021/12/07 04:28:56;;;;;;;;;2.50;1.75;;;;;;;;5131043;27;45467;-83
2021/12/07 04:31:21;;;;;;;;;2.00;2.00;;;;;;;;5110964;27;45511;-83
2021/12/07 04:33:47;;;;;;;;;3.00;3.00;;;;;;;;5105518;27;45520;-83
2021/12/07 04:36:13;;;;;;;;;2.50;2.50;;;;;;;;5120358;27;45275;-82
2021/12/07 04:38:38;;;;;;;;;3.50;3.00;;;;;;;;5108968;27;47131;-83
2021/12/07 04:41:04;;;;;;;;;6.50;3.50;;;;;;;;5109777;27;45991;-83
2021/12/07 04:43:30;;;;;;;;;5.00;3.00;;;;;;;;5130363;27;45843;-83
2021/12/07 04:46:04;;;;;;;;;2.00;2.00;;;;;;;;5102547;27;46094;-84
2021/12/07 04:49:41;;;;;;;;;5.00;4.50;;;;;;;;5115055;27;45738;-82
2021/12/07 04:59:27;;;;;;;;;2.75;2.75;;;;;;;;5122214;27;45725;-83
2021/12/07 05:01:52;;;;;;;;;2.00;2.00;;;;;;;;5093611;27;45464;-83
2021/12/07 05:04:23;;;;;;;;;2.00;2.00;;;;;;;;5111615;27;45437;-83
2021/12/07 05:06:52;;;;;;;;;2.00;2.00;;;;;;;;5122242;27;45730;-83
2021/12/07 05:14:48;;;;;;;;;5.50;4.50;;;;;;;;5097983;27;45591;-83
2021/12/07 05:39:04;;;;;;;;;7.00;6.00;;;;;;;;5148943;27;45390;-83
2021/12/07 05:41:29;;;;;;;;;10.50;4.50;;;;;;;;5130294;27;47418;-83
2021/12/07 05:43:54;;;;;;;;;6.00;3.67;;;;;;;;5130116;27;45092;-84
2021/12/07 05:46:19;;;;;;;;;6.33;5.33;;;;;;;;5148917;27;45330;-83
2021/12/07 05:48:45;;;;;;;;;7.67;7.00;;;;;;;;5129834;27;45563;-83
2021/12/07 05:51:10;;;;;;;;;6.67;6.00;;;;;;;;5145205;27;45790;-84
2021/12/07 05:53:35;;;;;;;;;9.25;9.00;;;;;;;;5122954;27;45525;-83
2021/12/07 05:56:01;;;;;;;;;6.25;5.75;;;;;;;;5122903;27;45712;-83
2021/12/07 05:58:26;;;;;;;;;6.25;5.25;;;;;;;;5126286;27;45274;-84
2021/12/07 06:00:57;;;;;;;;;6.00;5.00;;;;;;;;5137168;27;46191;-83
2021/12/07 06:03:23;;;;;;;;;6.50;4.50;;;;;;;;5141638;27;45109;-84
2021/12/07 06:05:48;;;;;;;;;5.75;5.50;;;;;;;;5153152;27;45113;-84
2021/12/07 06:08:14;;;;;;;;;6.00;6.00;;;;;;;;5129190;27;45918;-83
2021/12/07 06:10:39;;;;;;;;;11.50;10.50;;;;;;;;5148587;27;45687;-85
2021/12/07 06:13:04;;;;;;;;;8.33;7.00;;;;;;;;5150877;27;45158;-85
2021/12/07 06:15:33;;;;;;;;;8.25;7.25;;;;;;;;5150364;27;45481;-83
2021/12/07 06:17:58;;;;;;;;;5.75;5.75;;;;;;;;5130743;27;45848;-84
2021/12/07 06:20:23;;;;;;;;;10.00;7.67;;;;;;;;5150101;27;45750;-84
2021/12/07 06:22:49;;;;;;;;;6.00;6.00;;;;;;;;5133096;27;45227;-84
2021/12/07 06:25:14;;;;;;;;;9.00;7.67;;;;;;;;5153066;27;45086;-83
2021/12/07 06:27:40;;;;;;;;;7.00;7.00;;;;;;;;5152379;27;45336;-84
2021/12/07 06:30:07;;;;;;;;;8.25;5.50;;;;;;;;5133267;27;47545;-83
2021/12/07 06:32:32;;;;;;;;;9.00;8.75;;;;;;;;5133248;27;45660;-84
2021/12/07 06:34:57;;;;;;;;;11.67;11.67;;;;;;;;5152457;27;45055;-85
2021/12/07 06:37:22;;;;;;;;;7.00;7.00;;;;;;;;5133803;27;45400;-84
2021/12/07 06:39:48;;;;;;;;;12.00;10.67;;;;;;;;5133326;27;47497;-85
2021/12/07 06:42:13;;;;;;;;;11.00;11.00;;;;;;;;5151917;27;45159;-83
2021/12/07 06:44:38;;;;;;;;;13.33;11.67;;;;;;;;5139281;27;45461;-83
2021/12/07 06:47:04;;;;;;;;;13.25;12.50;;;;;;;;5130544;27;45443;-83
2021/12/07 06:49:29;;;;;;;;;14.50;14.00;;;;;;;;5150982;27;45300;-83
2021/12/07 06:51:54;;;;;;;;;17.00;15.50;;;;;;;;5152143;27;45141;-85
2021/12/07 06:54:20;;;;;;;;;16.00;14.67;;;;;;;;5151603;27;45167;-82
2021/12/07 06:56:45;;;;;;;;;15.00;11.00;;;;;;;;5152421;27;45272;-82
2021/12/07 06:59:10;;;;;;;;;11.33;11.00;;;;;;;;5151861;27;45610;-84
2021/12/07 07:01:36;;;;;;;;;15.25;11.75;;;;;;;;5152107;27;45570;-81
2021/12/07 07:04:01;;;;;;;;;11.25;10.00;;;;;;;;5133769;27;45292;-85
2021/12/07 07:06:27;;;;;;;;;10.50;8.25;;;;;;;;5132133;27;45589;-82
2021/12/07 07:08:52;;;;;;;;;10.25;10.00;;;;;;;;5121672;27;46636;-83
2021/12/07 07:11:18;;;;;;;;;11.50;10.25;;;;;;;;5110522;27;45555;-83
2021/12/07 07:13:47;;;;;;;;;10.75;8.00;;;;;;;;5110647;27;45737;-83
2021/12/07 07:16:13;;;;;;;;;13.75;11.75;;;;;;;;5134306;27;45634;-83
2021/12/07 07:18:39;;;;;;;;;15.50;11.75;;;;;;;;5137883;27;45672;-83
2021/12/07 07:21:05;;;;;;;;;10.50;10.50;;;;;;;;5113346;27;45665;-83
2021/12/07 07:23:31;;;;;;;;;14.25;14.00;;;;;;;;5113118;27;45576;-84
2021/12/07 07:25:56;;;;;;;;;12.67;12.67;;;;;;;;5133902;27;45636;-83
2021/12/07 07:28:28;;;;;;;;;14.00;13.33;;;;;;;;5131775;27;47509;-82
2021/12/07 07:30:53;;;;;;;;;16.75;15.25;;;;;;;;5125738;27;45623;-82
2021/12/07 07:33:19;;;;;;;;;15.00;13.50;;;;;;;;5115046;27;45496;-83
2021/12/07 07:35:44;;;;;;;;;20.75;16.25;;;;;;;;5112917;27;45846;-82
2021/12/07 07:38:10;;;;;;;;;15.50;15.25;;;;;;;;5128530;27;48118;-83
2021/12/07 07:40:35;;;;;;;;;16.00;16.00;;;;;;;;5151107;27;45239;-83
2021/12/07 07:43:00;;;;;;;;;17.00;15.33;;;;;;;;5130156;27;45284;-82
2021/12/07 07:45:25;;;;;;;;;13.67;13.00;;;;;;;;5151278;27;45454;-82
2021/12/07 07:47:51;;;;;;;;;14.00;12.67;;;;;;;;5151404;27;45422;-83
2021/12/07 07:50:17;;;;;;;;;15.50;13.00;;;;;;;;5131630;27;45440;-82
2021/12/07 07:52:42;;;;;;;;;12.75;10.00;;;;;;;;5132779;27;45134;-83
2021/12/07 07:55:08;;;;;;;;;14.00;12.00;;;;;;;;5132308;27;45074;-82
2021/12/07 07:57:34;;;;;;;;;15.00;14.25;;;;;;;;5131316;27;46875;-83
2021/12/07 07:59:59;;;;;;;;;12.00;10.00;;;;;;;;5121415;27;45594;-82
2021/12/07 08:02:24;;;;;;;;;13.00;10.00;;;;;;;;5134755;27;45475;-83
2021/12/07 08:04:49;;;;;;;;;9.00;9.00;;;;;;;;5116017;27;45674;-83
2021/12/07 08:07:15;;;;;;;;;12.33;10.00;;;;;;;;5119157;27;47898;-83
2021/12/07 08:09:40;;;;;;;;;14.00;12.33;;;;;;;;5115112;27;45635;-84
2021/12/07 08:12:06;;;;;;;;;15.00;14.50;;;;;;;;5134522;27;45444;-82
2021/12/07 08:14:31;;;;;;;;;14.00;12.75;;;;;;;;5143458;27;45277;-84
2021/12/07 08:16:57;;;;;;;;;19.00;16.00;;;;;;;;5135957;27;46165;-83
2021/12/07 08:19:22;;;;;;;;;14.25;13.75;;;;;;;;5119752;27;45635;-83
2021/12/07 08:21:48;;;;;;;;;8.33;8.33;;;;;;;;5114336;27;45935;-82
2021/12/07 08:24:13;;;;;;;;;10.50;9.50;;;;;;;;5135047;27;45527;-83
2021/12/07 08:26:38;;;;;;;;;12.00;10.00;;;;;;;;5130658;27;46163;-84
2021/12/07 08:29:04;;;;;;;;;10.67;10.00;;;;;;;;5131159;27;45420;-85
2021/12/07 08:31:29;;;;;;;;;10.33;10.33;;;;;;;;5124356;27;45229;-83
2021/12/07 08:33:54;;;;;;;;;10.50;9.25;;;;;;;;5145113;27;45267;-84
2021/12/07 08:36:19;;;;;;;;;11.67;11.67;;;;;;;;5121702;27;47337;-82
2021/12/07 08:38:46;;;;;;;;;11.67;11.00;;;;;;;;5131861;27;45397;-81
2021/12/07 08:41:11;;;;;;;;;12.75;11.00;;;;;;;;5115748;27;45571;-80
2021/12/07 08:43:38;;;;;;;;;12.75;11.25;;;;;;;;5141515;27;45525;-83
2021/12/07 08:46:03;;;;;;;;;13.00;10.75;;;;;;;;5146331;27;45404;-81
2021/12/07 08:48:29;;;;;;;;;11.00;10.50;;;;;;;;5143482;27;45707;-83
2021/12/07 08:50:55;;;;;;;;;14.75;14.50;;;;;;;;5140845;27;45391;-82
2021/12/07 08:53:21;;;;;;;;;14.75;13.75;;;;;;;;5131256;27;45625;-81
2021/12/07 09:01:16;;;;;;;;;12.25;11.50;;;;;;;;5130150;27;45535;-85
2021/12/07 09:03:42;;;;;;;;;11.00;11.00;;;;;;;;5113006;27;45562;-84
2021/12/07 09:06:08;;;;;;;;;13.00;10.75;;;;;;;;5111164;27;47665;-83
2021/12/07 09:08:33;;;;;;;;;11.50;10.25;;;;;;;;5096470;27;45493;-83
2021/12/07 09:10:59;;;;;;;;;15.75;14.00;;;;;;;;5107244;27;45586;-84
2021/12/07 09:13:26;;;;;;;;;10.00;9.75;;;;;;;;5111898;27;45838;-83
2021/12/07 09:15:52;;;;;;;;;10.50;10.00;;;;;;;;5112328;27;47412;-84
2021/12/07 09:18:18;;;;;;;;;11.25;9.00;;;;;;;;5112871;27;45512;-84
2021/12/07 09:20:43;;;;;;;;;11.00;10.00;;;;;;;;5113876;27;45784;-83
2021/12/07 09:23:08;;;;;;;;;8.25;8.25;;;;;;;;5108273;27;45572;-82
2021/12/07 09:25:34;;;;;;;;;10.67;8.67;;;;;;;;5103497;27;47807;-84
2021/12/07 09:27:59;;;;;;;;;7.00;7.00;;;;;;;;5135234;27;45360;-83
2021/12/07 09:30:24;;;;;;;;;7.67;6.67;;;;;;;;5130753;27;45612;-83
2021/12/07 09:32:49;;;;;;;;;7.00;7.00;;;;;;;;5136389;27;45143;-83
2021/12/07 09:35:15;;;;;;;;;14.50;11.75;;;;;;;;5117554;27;47079;-84
2021/12/07 09:37:41;;;;;;;;;9.00;8.25;;;;;;;;5123033;27;45950;-83
2021/12/07 09:40:09;;;;;;;;;12.50;11.75;;;;;;;;5134149;27;45207;-83
2021/12/07 09:42:34;;;;;;;;;10.25;10.25;;;;;;;;5128940;27;45120;-84
2021/12/07 09:44:59;;;;;;;;;11.00;10.00;;;;;;;;5123940;27;47082;-82
2021/12/07 09:47:24;;;;;;;;;11.75;10.00;;;;;;;;5114036;27;45501;-83
2021/12/07 09:49:50;;;;;;;;;11.67;11.00;;;;;;;;5136393;27;45971;-82
2021/12/07 09:52:15;;;;;;;;;13.00;12.50;;;;;;;;5116827;27;45592;-83
2021/12/07 09:54:40;;;;;;;;;11.75;10.00;;;;;;;;5114634;27;48496;-83
2021/12/07 09:57:06;;;;;;;;;10.67;10.00;;;;;;;;5116684;27;45918;-83
2021/12/07 09:59:31;;;;;;;;;11.00;10.25;;;;;;;;5135885;27;45502;-82
2021/12/07 10:01:57;;;;;;;;;7.75;7.75;;;;;;;;5126229;27;45198;-83
2021/12/07 10:04:27;;;;;;;;;7.33;7.33;;;;;;;;5117084;27;48012;-82
2021/12/07 10:06:52;;;;;;;;;9.50;9.50;;;;;;;;5117677;27;45356;-84
2021/12/07 10:09:18;;;;;;;;;11.50;11.50;;;;;;;;5135318;27;45411;-83
2021/12/07 10:11:43;;;;;;;;;8.33;7.67;;;;;;;;5123055;27;45502;-84
2021/12/07 10:14:08;;;;;;;;;12.00;11.00;;;;;;;;5115790;27;47444;-84
2021/12/07 10:16:34;;;;;;;;;10.75;10.00;;;;;;;;5121047;27;45487;-82
2021/12/07 10:18:59;;;;;;;;;14.25;14.25;;;;;;;;5132598;27;45342;-83
2021/12/07 10:21:26;;;;;;;;;12.00;11.33;;;;;;;;5112053;27;45433;-83
2021/12/07 10:23:54;;;;;;;;;9.50;7.75;;;;;;;;5134700;27;46194;-83
2021/12/07 10:26:46;;;;;;;;;7.75;7.50;;;;;;;;5115682;27;45826;-83
2021/12/07 10:29:15;;;;;;;;;10.00;9.25;;;;;;;;5114030;27;45460;-83
2021/12/07 10:31:45;;;;;;;;;11.25;10.25;;;;;;;;5123216;27;45223;-84
2021/12/07 10:34:16;;;;;;;;;11.00;10.00;;;;;;;;5126711;27;47685;-83
2021/12/07 10:36:46;;;;;;;;;10.75;10.00;;;;;;;;5150367;27;45563;-83
2021/12/07 10:39:14;;;;;;;;;11.25;10.75;;;;;;;;5129375;27;45200;-83
2021/12/07 10:41:41;;;;;;;;;11.75;11.00;;;;;;;;5152063;27;45362;-83
2021/12/07 10:44:07;;;;;;;;;12.00;11.50;;;;;;;;5131371;27;47227;-83
2021/12/07 10:46:32;;;;;;;;;10.75;10.50;;;;;;;;5127233;27;45339;-83
2021/12/07 10:49:25;;;;;;;;;12.33;11.67;;;;;;;;5151569;27;45328;-83
2021/12/07 10:52:03;;;;;;;;;15.25;14.25;;;;;;;;5127724;27;45194;-83
2021/12/07 10:54:30;;;;;;;;;14.50;12.50;;;;;;;;5117917;27;47200;-83
2021/12/07 10:56:55;;;;;;;;;13.75;12.50;;;;;;;;5148172;27;45385;-83
2021/12/07 10:59:21;;;;;;;;;16.00;15.25;;;;;;;;5109405;27;45590;-84
2021/12/07 11:01:48;;;;;;;;;18.75;17.50;;;;;;;;5108792;27;45514;-83
2021/12/07 11:04:33;;;;;;;;;21.50;17.25;;;;;;;;5139309;27;46177;-83
2021/12/07 11:07:10;;;;;;;;;17.25;16.75;;;;;;;;5149239;27;45743;-83
2021/12/07 11:09:41;;;;;;;;;22.00;19.50;;;;;;;;5119449;27;45449;-82
2021/12/07 11:12:07;;;;;;;;;18.25;14.50;;;;;;;;5152190;27;45411;-82
2021/12/07 11:15:00;;;;;;;;;15.75;14.25;;;;;;;;5133005;27;47482;-81
2021/12/07 11:17:31;;;;;;;;;12.25;11.50;;;;;;;;5124310;27;45229;-82
2021/12/07 11:19:56;;;;;;;;;12.00;11.00;;;;;;;;5122553;27;45085;-82
2021/12/07 11:22:28;;;;;;;;;11.50;10.75;;;;;;;;5119059;27;45270;-82
2021/12/07 11:24:54;;;;;;;;;12.25;11.50;;;;;;;;5151451;27;46101;-84
2021/12/07 11:30:04;;;;;;;;;11.25;10.75;;;;;;;;5150525;27;45209;-84
2021/12/07 11:32:29;;;;;;;;;14.33;12.67;;;;;;;;5147809;27;45210;-84
2021/12/07 11:34:55;;;;;;;;;11.50;11.25;;;;;;;;5152285;27;45191;-85
2021/12/07 11:37:22;;;;;;;;;12.00;10.25;;;;;;;;5133193;27;45327;-87
2021/12/07 11:39:50;;;;;;;;;12.00;12.00;;;;;;;;5133757;27;45233;-86
2021/12/07 11:42:15;;;;;;;;;11.75;11.00;;;;;;;;5115467;27;45610;-86
2021/12/07 11:44:46;;;;;;;;;16.67;12.00;;;;;;;;5100725;27;48130;-86
2021/12/07 11:47:11;;;;;;;;;13.00;11.00;;;;;;;;5114402;27;46062;-84
2021/12/07 11:49:38;;;;;;;;;10.50;10.50;;;;;;;;5114499;27;45568;-85
2021/12/07 11:52:04;;;;;;;;;10.00;8.50;;;;;;;;5121884;27;45715;-84
2021/12/07 11:54:37;;;;;;;;;9.00;7.25;;;;;;;;5111443;27;46807;-85
2021/12/07 11:57:03;;;;;;;;;7.75;6.00;;;;;;;;5108223;27;46117;-84
2021/12/07 11:59:29;;;;;;;;;6.25;6.25;;;;;;;;5104118;27;45555;-84
2021/12/07 12:01:55;;;;;;;;;6.75;6.25;;;;;;;;5109154;27;45356;-84
2021/12/07 12:04:21;;;;;;;;;7.00;7.00;;;;;;;;5121968;27;48012;-84
2021/12/07 12:06:52;;;;;;;;;6.25;6.00;;;;;;;;5112913;27;45451;-85
2021/12/07 12:09:18;;;;;;;;;7.00;6.75;;;;;;;;5112184;27;45343;-84
2021/12/07 12:12:09;;;;;;;;;7.00;4.00;;;;;;;;5131903;27;45431;-85
2021/12/07 12:14:53;;;;;;;;;8.75;7.75;;;;;;;;5112417;27;47468;-84
2021/12/07 12:17:30;;;;;;;;;5.50;4.00;;;;;;;;5131028;27;45973;-84
2021/12/07 12:20:11;;;;;;;;;8.00;8.00;;;;;;;;5112703;27;45584;-84
2021/12/07 12:22:42;;;;;;;;;7.25;6.50;;;;;;;;5112341;27;45556;-84
2021/12/07 12:25:10;;;;;;;;;6.75;5.50;;;;;;;;5130876;27;46392;-84
2021/12/07 12:27:35;;;;;;;;;5.50;5.00;;;;;;;;5112522;27;45855;-85
2021/12/07 12:30:21;;;;;;;;;7.00;3.00;;;;;;;;5112581;27;45484;-84
2021/12/07 12:32:53;;;;;;;;;5.25;4.25;;;;;;;;5130820;27;45609;-85
2021/12/07 12:35:25;;;;;;;;;9.25;8.25;;;;;;;;5112031;27;47499;-84
2021/12/07 12:37:50;;;;;;;;;7.25;3.25;;;;;;;;5112604;27;45529;-85
2021/12/07 12:40:21;;;;;;;;;4.67;4.00;;;;;;;;5131405;27;45409;-84
2021/12/07 12:42:48;;;;;;;;;6.75;5.00;;;;;;;;5112635;27;45431;-84
2021/12/07 12:45:21;;;;;;;;;5.50;5.00;;;;;;;;5130416;27;45488;-84
2021/12/07 12:47:54;;;;;;;;;3.50;3.25;;;;;;;;5112435;27;45491;-83
2021/12/07 12:50:42;;;;;;;;;5.00;4.00;;;;;;;;5130817;27;45879;-84
2021/12/07 12:53:16;;;;;;;;;4.00;3.00;;;;;;;;5115270;27;45425;-84
2021/12/07 12:55:46;;;;;;;;;3.75;3.00;;;;;;;;5112599;27;47297;-83
2021/12/07 12:58:15;;;;;;;;;6.00;5.00;;;;;;;;5112043;27;45933;-84
2021/12/07 13:00:59;;;;;;;;;5.00;4.00;;;;;;;;5112190;27;45521;-84
2021/12/07 13:03:25;;;;;;;;;4.00;3.00;;;;;;;;5134192;27;45468;-84
2021/12/07 13:05:57;;;;;;;;;7.25;6.25;;;;;;;;5115935;27;48149;-83
2021/12/07 13:08:22;;;;;;;;;4.50;3.50;;;;;;;;5115285;27;45945;-84
2021/12/07 13:10:58;;;;;;;;;4.00;3.33;;;;;;;;5135098;27;45651;-83
2021/12/07 13:13:31;;;;;;;;;3.25;3.25;;;;;;;;5134352;27;45707;-84
2021/12/07 13:15:56;;;;;;;;;6.00;4.00;;;;;;;;5134585;27;45525;-84
2021/12/07 13:18:24;;;;;;;;;5.00;5.00;;;;;;;;5134246;27;45650;-83
2021/12/07 13:20:50;;;;;;;;;6.00;5.50;;;;;;;;5115922;27;45577;-84
2021/12/07 13:23:16;;;;;;;;;6.00;6.00;;;;;;;;5115130;27;45643;-83
2021/12/07 13:25:52;;;;;;;;;6.75;6.00;;;;;;;;5134313;27;45640;-83
2021/12/07 13:28:17;;;;;;;;;7.50;6.00;;;;;;;;5134166;27;45503;-84
2021/12/07 13:30:49;;;;;;;;;6.00;4.00;;;;;;;;5115295;27;45543;-83
2021/12/07 13:33:34;;;;;;;;;7.25;6.00;;;;;;;;5134359;27;45518;-84
2021/12/07 13:36:00;;;;;;;;;6.00;6.00;;;;;;;;5115439;27;46465;-84
2021/12/07 13:38:27;;;;;;;;;5.00;4.50;;;;;;;;5114772;27;45487;-84
2021/12/07 13:41:13;;;;;;;;;3.75;3.00;;;;;;;;5134433;27;45436;-84
2021/12/07 13:43:39;;;;;;;;;8.00;7.00;;;;;;;;5115691;27;45557;-84
2021/12/07 13:46:10;;;;;;;;;7.00;6.00;;;;;;;;5133743;27;46227;-83
2021/12/07 13:48:35;;;;;;;;;6.25;5.50;;;;;;;;5115296;27;45493;-83
2021/12/07 13:51:01;;;;;;;;;7.00;6.25;;;;;;;;5115163;27;45672;-83
2021/12/07 13:53:26;;;;;;;;;7.50;6.00;;;;;;;;5133438;27;45557;-84
2021/12/07 13:55:52;;;;;;;;;9.67;3.67;;;;;;;;5115469;27;47225;-84
2021/12/07 13:58:17;;;;;;;;;3.75;3.00;;;;;;;;5133626;27;45468;-84
2021/12/07 14:00:42;;;;;;;;;10.50;8.25;;;;;;;;5114873;27;45562;-84
2021/12/07 14:03:09;;;;;;;;;8.33;7.67;;;;;;;;5133996;27;45836;-85
2021/12/07 14:05:42;;;;;;;;;4.75;3.00;;;;;;;;5133714;27;45919;-85
2021/12/07 14:08:09;;;;;;;;;6.75;4.25;;;;;;;;5133077;27;45861;-86
2021/12/07 14:10:34;;;;;;;;;6.50;4.75;;;;;;;;5133840;27;45524;-85
2021/12/07 14:13:00;;;;;;;;;3.00;3.00;;;;;;;;5133741;27;45505;-85
2021/12/07 14:15:28;;;;;;;;;9.25;9.00;;;;;;;;5113540;27;47497;-85
2021/12/07 14:17:57;;;;;;;;;5.75;4.25;;;;;;;;5133954;27;45785;-84
2021/12/07 14:20:29;;;;;;;;;7.25;6.50;;;;;;;;5133100;27;44895;-85
2021/12/07 14:22:54;;;;;;;;;7.00;6.75;;;;;;;;5114752;27;45644;-85
2021/12/07 14:25:19;;;;;;;;;16.67;15.00;;;;;;;;5133177;27;46387;-85
2021/12/07 14:27:46;;;;;;;;;12.25;10.00;;;;;;;;5114763;27;45544;-85
2021/12/07 14:30:12;;;;;;;;;10.00;9.25;;;;;;;;5114180;27;46007;-85
2021/12/07 14:32:41;;;;;;;;;7.75;7.00;;;;;;;;5114559;27;45449;-85
2021/12/07 14:35:06;;;;;;;;;6.75;6.75;;;;;;;;5113567;27;48183;-85
2021/12/07 14:37:32;;;;;;;;;4.67;3.67;;;;;;;;5132823;27;45503;-85
2021/12/07 14:39:57;;;;;;;;;7.75;6.00;;;;;;;;5133476;27;45449;-85
2021/12/07 14:42:23;;;;;;;;;12.67;8.67;;;;;;;;5114303;27;45296;-84
2021/12/07 14:44:51;;;;;;;;;8.75;8.00;;;;;;;;5114326;27;47355;-85
2021/12/07 14:47:17;;;;;;;;;13.50;10.00;;;;;;;;5113682;27;45560;-84
2021/12/07 14:49:43;;;;;;;;;8.75;8.00;;;;;;;;5114487;27;45774;-84
2021/12/07 14:52:13;;;;;;;;;9.00;6.00;;;;;;;;5113839;27;45537;-84
2021/12/07 14:54:38;;;;;;;;;6.75;5.25;;;;;;;;5114301;27;46995;-85
2021/12/07 14:57:03;;;;;;;;;8.00;7.67;;;;;;;;5133468;27;45481;-85
2021/12/07 14:59:29;;;;;;;;;8.50;8.50;;;;;;;;5113839;27;45977;-85
2021/12/07 15:01:56;;;;;;;;;8.00;7.33;;;;;;;;5114945;27;45816;-84
2021/12/07 15:04:24;;;;;;;;;7.75;7.25;;;;;;;;5132279;27;45542;-85
2021/12/07 15:06:51;;;;;;;;;6.50;6.00;;;;;;;;5133203;27;45919;-85
2021/12/07 15:09:17;;;;;;;;;6.25;4.00;;;;;;;;5132954;27;45359;-85
2021/12/07 15:11:46;;;;;;;;;9.50;9.00;;;;;;;;5133096;27;45488;-85
2021/12/07 15:14:13;;;;;;;;;8.00;7.00;;;;;;;;5132441;27;45534;-85
2021/12/07 15:16:40;;;;;;;;;6.75;6.00;;;;;;;;5132588;27;45590;-85
2021/12/07 15:19:05;;;;;;;;;4.25;2.50;;;;;;;;5114115;27;45480;-84
2021/12/07 15:21:34;;;;;;;;;6.75;5.75;;;;;;;;5113667;27;45860;-85
2021/12/07 15:24:03;;;;;;;;;3.00;3.00;;;;;;;;5132824;27;46330;-85
2021/12/07 15:26:28;;;;;;;;;6.00;6.00;;;;;;;;5131318;27;46380;-85
2021/12/07 15:29:08;;;;;;;;;3.25;3.00;;;;;;;;5114071;27;45598;-85
2021/12/07 15:31:36;;;;;;;;;18.50;15.25;;;;;;;;5113754;27;45482;-85
2021/12/07 15:34:02;;;;;;;;;5.00;3.75;;;;;;;;5113832;27;48072;-85
2021/12/07 15:36:29;;;;;;;;;6.00;4.00;;;;;;;;5131721;27;45666;-85
2021/12/07 15:39:05;;;;;;;;;2.75;2.00;;;;;;;;5132820;27;45452;-85
2021/12/07 15:41:31;;;;;;;;;19.25;14.50;;;;;;;;5113417;27;45551;-84
2021/12/07 15:43:57;;;;;;;;;7.00;6.00;;;;;;;;5132611;27;46645;-84
2021/12/07 15:46:22;;;;;;;;;4.50;3.50;;;;;;;;5113051;27;45558;-85
2021/12/07 15:48:47;;;;;;;;;7.00;6.67;;;;;;;;5113888;27;45436;-85
2021/12/07 15:51:12;;;;;;;;;4.00;3.67;;;;;;;;5131515;27;45725;-84
2021/12/07 15:53:39;;;;;;;;;13.67;10.67;;;;;;;;5113526;27;47094;-84
2021/12/07 15:56:05;;;;;;;;;3.00;3.00;;;;;;;;5114086;27;45900;-84
2021/12/07 15:58:30;;;;;;;;;9.50;8.25;;;;;;;;5131440;27;45724;-84
2021/12/07 16:01:00;;;;;;;;;8.00;6.67;;;;;;;;5113844;27;45685;-85
2021/12/07 16:03:27;;;;;;;;;6.00;6.00;;;;;;;;5131461;27;46373;-84
2021/12/07 16:05:54;;;;;;;;;6.75;4.00;;;;;;;;5132104;27;45643;-85
2021/12/07 16:08:25;;;;;;;;;6.50;6.50;;;;;;;;5113187;27;45328;-85
2021/12/07 16:10:54;;;;;;;;;6.25;5.25;;;;;;;;5124616;27;45534;-85
2021/12/07 16:13:23;;;;;;;;;5.25;4.00;;;;;;;;5107211;27;47505;-85
2021/12/07 16:15:53;;;;;;;;;5.75;5.25;;;;;;;;5109570;27;45585;-85
2021/12/07 16:18:18;;;;;;;;;6.00;3.25;;;;;;;;5123640;27;45472;-85